Time;durP1;ratioP1;P1;durP2;ratioP2;P2;SDS_P1;SDS_P2;PMS_P1;PMS_P2;Temp;Humidity;BMP_temperature;BMP_pressure;BME280_temperature;BME280_humidity;BME280_pressure;Samples;Min_cycle;Max_cycle;Signal;HPM_P1;HPM_P2
2021/10/05 00:01:57;;;;;;;13.95;12.20;;;13.40;99.90;;;;;;4971871;28;20023;-95
2021/10/05 00:04:23;;;;;;;13.73;11.52;;;13.40;99.90;;;;;;4978250;28;20061;-94
2021/10/05 00:06:49;;;;;;;13.43;11.20;;;13.40;99.90;;;;;;4981806;28;20167;-91
2021/10/05 00:09:14;;;;;;;10.88;9.85;;;13.40;99.90;;;;;;4968793;28;20030;-95
2021/10/05 00:11:40;;;;;;;11.32;9.73;;;13.50;99.90;;;;;;4960566;28;20031;-95
2021/10/05 00:14:06;;;;;;;15.40;13.75;;;13.50;99.90;;;;;;4959156;28;20027;-95
2021/10/05 00:16:32;;;;;;;15.85;14.00;;;13.50;99.90;;;;;;4958609;28;20027;-95
2021/10/05 00:18:58;;;;;;;13.77;12.38;;;13.40;99.90;;;;;;4959117;28;20382;-94
2021/10/05 00:21:23;;;;;;;23.25;16.48;;;13.40;99.90;;;;;;4958722;28;20170;-94
2021/10/05 00:23:49;;;;;;;11.35;10.15;;;13.40;99.90;;;;;;4959108;28;20113;-95
2021/10/05 00:26:15;;;;;;;19.15;16.77;;;13.40;99.90;;;;;;4959506;28;20034;-94
2021/10/05 00:28:41;;;;;;;17.55;15.85;;;13.30;99.90;;;;;;4958321;28;20113;-93
2021/10/05 00:31:08;;;;;;;16.25;14.45;;;13.30;99.90;;;;;;4958228;28;20251;-95
2021/10/05 00:33:33;;;;;;;14.65;13.10;;;13.10;99.90;;;;;;4958264;28;20379;-95
2021/10/05 00:35:59;;;;;;;16.80;14.57;;;13.20;99.90;;;;;;4958888;28;20133;-93
2021/10/05 00:38:25;;;;;;;16.23;14.63;;;13.40;99.90;;;;;;4950078;29;20027;-94
2021/10/05 00:40:51;;;;;;;15.43;13.82;;;13.30;99.90;;;;;;4923675;29;20116;-93
2021/10/05 00:43:16;;;;;;;14.07;12.70;;;13.40;99.90;;;;;;4920504;29;20028;-94
2021/10/05 00:45:42;;;;;;;17.05;15.15;;;13.30;99.90;;;;;;4920088;29;20020;-94
2021/10/05 00:48:08;;;;;;;16.02;14.27;;;13.20;99.90;;;;;;4919883;29;20483;-93
2021/10/05 00:50:34;;;;;;;15.57;14.07;;;13.10;99.90;;;;;;4920265;29;20038;-94
2021/10/05 00:53:00;;;;;;;15.77;14.18;;;13.10;99.90;;;;;;4919921;29;20059;-94
2021/10/05 00:55:26;;;;;;;12.82;11.52;;;13.20;99.90;;;;;;4920292;29;20484;-93
2021/10/05 00:57:52;;;;;;;16.75;15.05;;;13.30;99.90;;;;;;4920097;29;20082;-93
2021/10/05 01:00:19;;;;;;;18.60;15.70;;;13.20;99.90;;;;;;4920294;29;20019;-93
2021/10/05 01:02:45;;;;;;;10.55;9.40;;;13.00;99.90;;;;;;4919859;29;20035;-94
2021/10/05 01:05:12;;;;;;;13.05;10.48;;;13.20;99.90;;;;;;4920060;29;20034;-94
2021/10/05 01:07:38;;;;;;;11.70;10.25;;;13.30;99.90;;;;;;4919680;29;20459;-94
2021/10/05 01:10:05;;;;;;;14.77;13.23;;;13.30;99.90;;;;;;4919823;29;20023;-95
2021/10/05 01:12:31;;;;;;;14.95;13.43;;;13.30;99.90;;;;;;4919892;29;20051;-93
2021/10/05 01:14:57;;;;;;;14.70;12.95;;;13.20;99.90;;;;;;4920214;29;20380;-93
2021/10/05 01:17:22;;;;;;;14.20;12.68;;;13.30;99.90;;;;;;4919499;29;20024;-92
2021/10/05 01:19:48;;;;;;;15.05;12.38;;;13.20;99.90;;;;;;4919607;29;20024;-94
2021/10/05 01:22:14;;;;;;;11.15;9.95;;;13.20;99.90;;;;;;4919576;29;20087;-93
2021/10/05 01:24:40;;;;;;;16.63;14.90;;;13.20;99.90;;;;;;4919569;29;20369;-92
2021/10/05 01:27:06;;;;;;;12.10;10.90;;;13.30;99.90;;;;;;4919574;29;20488;-93
2021/10/05 01:29:34;;;;;;;14.55;13.10;;;13.30;99.90;;;;;;4920370;29;20040;-93
2021/10/05 01:32:03;;;;;;;16.67;14.90;;;13.10;99.90;;;;;;4919484;29;20032;-93
2021/10/05 01:34:30;;;;;;;16.88;15.02;;;13.10;99.90;;;;;;4919547;29;20020;-93
2021/10/05 01:36:59;;;;;;;17.85;13.35;;;13.10;99.90;;;;;;4919685;29;20023;-93
2021/10/05 01:39:27;;;;;;;13.15;11.82;;;13.10;99.90;;;;;;4919173;29;20044;-93
2021/10/05 01:41:55;;;;;;;13.82;12.40;;;13.20;99.90;;;;;;4920321;29;20023;-93
2021/10/05 01:44:21;;;;;;;9.65;8.65;;;13.40;99.90;;;;;;4919580;29;20019;-93
2021/10/05 01:46:49;;;;;;;15.45;13.90;;;13.40;99.90;;;;;;4919716;29;20051;-92
2021/10/05 01:49:15;;;;;;;15.63;14.07;;;13.60;99.90;;;;;;4920671;29;20062;-93
2021/10/05 01:51:42;;;;;;;14.05;12.57;;;13.30;99.90;;;;;;4923308;29;20039;-93
2021/10/05 01:54:08;;;;;;;13.68;12.30;;;13.30;99.90;;;;;;4922767;29;20032;-93
2021/10/05 01:56:33;;;;;;;13.32;10.52;;;13.40;99.90;;;;;;4922623;29;20024;-92
2021/10/05 01:58:59;;;;;;;15.48;13.75;;;13.50;99.90;;;;;;4923340;29;20031;-93
2021/10/05 02:01:25;;;;;;;15.95;14.10;;;13.50;99.90;;;;;;4923020;29;20464;-92
2021/10/05 02:03:51;;;;;;;15.77;13.95;;;13.40;99.90;;;;;;4922534;29;20119;-92
2021/10/05 02:06:16;;;;;;;16.35;14.65;;;13.30;99.90;;;;;;4923529;29;20456;-92
2021/10/05 02:08:42;;;;;;;14.90;13.35;;;13.30;99.90;;;;;;4923377;29;20467;-91
2021/10/05 02:11:08;;;;;;;13.70;11.68;;;13.10;99.90;;;;;;4922753;29;20024;-92
2021/10/05 02:13:35;;;;;;;16.25;14.55;;;13.30;99.90;;;;;;4923231;29;20031;-93
2021/10/05 02:16:01;;;;;;;12.55;11.02;;;13.40;99.90;;;;;;4923956;29;20028;-92
2021/10/05 02:18:27;;;;;;;19.25;14.82;;;13.40;99.90;;;;;;4938557;29;20015;-92
2021/10/05 02:20:53;;;;;;;16.50;14.80;;;13.50;99.90;;;;;;4941435;29;20034;-92
2021/10/05 02:23:18;;;;;;;15.20;13.60;;;13.40;99.90;;;;;;4925386;29;20377;-95
2021/10/05 02:25:44;;;;;;;16.58;14.88;;;13.30;99.90;;;;;;4923482;29;20028;-92
2021/10/05 02:28:10;;;;;;;19.38;15.60;;;13.20;99.90;;;;;;4923263;29;20028;-93
2021/10/05 02:30:36;;;;;;;10.85;9.70;;;13.20;99.90;;;;;;4922119;29;20034;-95
2021/10/05 02:33:02;;;;;;;13.32;11.07;;;13.20;99.90;;;;;;4922409;29;20035;-93
2021/10/05 02:35:28;;;;;;;12.63;11.38;;;13.30;99.90;;;;;;4922233;29;20404;-92
2021/10/05 02:37:54;;;;;;;18.25;13.18;;;13.20;99.90;;;;;;4922802;29;20032;-93
2021/10/05 02:40:19;;;;;;;14.00;11.73;;;13.20;99.90;;;;;;4921915;29;20048;-92
2021/10/05 02:42:46;;;;;;;18.23;15.70;;;13.20;99.90;;;;;;4922086;29;20031;-93
2021/10/05 02:45:12;;;;;;;16.35;13.55;;;13.10;99.90;;;;;;4922023;29;20125;-93
2021/10/05 02:47:38;;;;;;;16.77;15.02;;;13.10;99.90;;;;;;4921805;29;20051;-92
2021/10/05 02:50:04;;;;;;;18.17;15.43;;;13.20;99.90;;;;;;4922640;29;20103;-94
2021/10/05 02:52:30;;;;;;;16.67;14.98;;;13.20;99.90;;;;;;4922582;29;20027;-92
2021/10/05 02:54:56;;;;;;;11.93;10.60;;;13.20;99.90;;;;;;4921580;29;20053;-92
2021/10/05 02:57:22;;;;;;;16.58;13.23;;;13.20;99.90;;;;;;4921979;29;20094;-92
2021/10/05 02:59:48;;;;;;;12.90;11.55;;;13.20;99.90;;;;;;4921530;29;20065;-92
2021/10/05 03:02:14;;;;;;;14.10;12.60;;;13.10;99.90;;;;;;4920923;29;20035;-92
2021/10/05 03:04:41;;;;;;;13.40;12.00;;;13.20;99.90;;;;;;4921170;29;20163;-94
2021/10/05 03:07:08;;;;;;;13.88;12.25;;;13.20;99.90;;;;;;4921153;29;20028;-92
2021/10/05 03:09:34;;;;;;;9.18;8.20;;;13.50;99.90;;;;;;4921995;29;20035;-94
2021/10/05 03:12:01;;;;;;;13.57;12.13;;;13.40;99.90;;;;;;4921209;29;20042;-93
2021/10/05 03:14:27;;;;;;;14.07;12.25;;;13.40;99.90;;;;;;4921864;29;20054;-92
2021/10/05 03:16:52;;;;;;;12.02;10.73;;;13.30;99.90;;;;;;4921304;29;20028;-92
2021/10/05 03:19:18;;;;;;;15.68;11.43;;;13.20;99.90;;;;;;4921207;29;20035;-93
2021/10/05 03:21:44;;;;;;;11.32;10.13;;;13.20;99.90;;;;;;4920908;29;20028;-91
2021/10/05 03:24:10;;;;;;;10.18;8.75;;;13.10;99.90;;;;;;4920982;29;20075;-92
2021/10/05 03:26:36;;;;;;;11.80;10.60;;;13.20;99.90;;;;;;4921255;29;20383;-92
2021/10/05 03:29:04;;;;;;;9.10;8.20;;;13.20;99.90;;;;;;4921504;29;20387;-92
2021/10/05 03:31:30;;;;;;;13.68;11.68;;;13.50;99.90;;;;;;4920950;29;20024;-91
2021/10/05 03:33:55;;;;;;;8.85;7.50;;;13.60;99.90;;;;;;4920900;29;20083;-91
2021/10/05 03:36:21;;;;;;;12.65;11.23;;;13.70;99.90;;;;;;4921051;29;20031;-92
2021/10/05 03:38:47;;;;;;;11.05;9.90;;;13.60;99.90;;;;;;4920432;29;20034;-92
2021/10/05 03:41:14;;;;;;;10.85;9.68;;;13.40;99.90;;;;;;4920349;29;20507;-92
2021/10/05 03:43:40;;;;;;;10.73;9.63;;;13.40;99.90;;;;;;4921344;29;20431;-92
2021/10/05 03:46:07;;;;;;;10.00;8.93;;;13.30;99.90;;;;;;4920819;29;20391;-92
2021/10/05 03:48:34;;;;;;;11.52;9.43;;;13.20;99.90;;;;;;4920559;29;20487;-91
2021/10/05 03:51:00;;;;;;;11.35;9.02;;;13.10;99.90;;;;;;4920987;29;20118;-93
2021/10/05 03:53:26;;;;;;;11.98;10.25;;;13.20;99.90;;;;;;4920541;29;20035;-91
2021/10/05 03:55:57;;;;;;;7.88;7.05;;;13.40;99.90;;;;;;4920965;29;20035;-91
2021/10/05 03:58:24;;;;;;;10.82;9.27;;;13.50;99.90;;;;;;4920508;29;20479;-91
2021/10/05 04:00:51;;;;;;;12.57;11.15;;;13.60;99.90;;;;;;4920510;29;20476;-94
2021/10/05 04:03:17;;;;;;;11.90;10.60;;;13.60;99.90;;;;;;4920443;29;20030;-93
2021/10/05 04:05:43;;;;;;;14.20;12.02;;;13.50;99.90;;;;;;4920596;29;20028;-91
2021/10/05 04:08:12;;;;;;;13.77;11.98;;;13.50;99.90;;;;;;4920984;29;20091;-93
2021/10/05 04:10:38;;;;;;;14.10;12.00;;;13.40;99.90;;;;;;4920248;29;20028;-93
2021/10/05 04:13:04;;;;;;;11.85;10.65;;;13.20;99.90;;;;;;4920394;29;20035;-92
2021/10/05 04:15:30;;;;;;;12.90;11.48;;;13.20;99.90;;;;;;4920299;29;20035;-91
2021/10/05 04:17:56;;;;;;;16.77;12.80;;;13.20;99.90;;;;;;4919945;29;20031;-93
2021/10/05 04:20:22;;;;;;;14.18;12.05;;;13.20;99.90;;;;;;4920801;29;20447;-93
2021/10/05 04:22:47;;;;;;;12.90;11.00;;;13.10;99.90;;;;;;4920394;29;20023;-94
2021/10/05 04:25:13;;;;;;;13.40;12.00;;;13.20;99.90;;;;;;4921940;29;20031;-94
2021/10/05 04:27:39;;;;;;;16.98;13.85;;;13.20;99.90;;;;;;4922273;29;20082;-93
2021/10/05 04:30:10;;;;;;;11.02;9.10;;;13.10;99.90;;;;;;4923835;29;20443;-94
2021/10/05 04:32:36;;;;;;;12.90;11.57;;;13.20;99.90;;;;;;4940876;28;20027;-93
2021/10/05 04:35:03;;;;;;;12.65;10.35;;;13.30;99.90;;;;;;4939258;29;20074;-95
2021/10/05 04:37:29;;;;;;;13.40;10.85;;;13.40;99.90;;;;;;4922642;29;20028;-92
2021/10/05 04:39:55;;;;;;;14.57;12.85;;;13.30;99.90;;;;;;4920918;29;20058;-93
2021/10/05 04:42:21;;;;;;;14.65;12.93;;;13.30;99.90;;;;;;4920426;29;20118;-93
2021/10/05 04:44:47;;;;;;;14.68;11.00;;;13.20;99.90;;;;;;4920550;29;20035;-93
2021/10/05 04:47:13;;;;;;;13.93;12.13;;;13.30;99.90;;;;;;4920341;29;20024;-93
2021/10/05 04:49:38;;;;;;;11.88;9.30;;;13.10;99.90;;;;;;4920746;29;20023;-91
2021/10/05 04:52:04;;;;;;;13.63;12.10;;;13.10;99.90;;;;;;4920597;29;20032;-93
2021/10/05 04:54:32;;;;;;;13.68;10.85;;;13.00;99.90;;;;;;4919943;29;20035;-93
2021/10/05 04:56:58;;;;;;;15.07;12.77;;;13.10;99.90;;;;;;4920594;29;20031;-91
2021/10/05 04:59:23;;;;;;;13.90;12.43;;;13.00;99.90;;;;;;4920184;29;20036;-91
2021/10/05 05:01:49;;;;;;;13.88;11.90;;;12.90;99.90;;;;;;4919735;29;20099;-93
2021/10/05 05:04:18;;;;;;;13.60;11.45;;;12.90;99.90;;;;;;4920231;29;20059;-92
2021/10/05 05:06:44;;;;;;;14.85;12.25;;;12.90;99.90;;;;;;4919824;29;20023;-93
2021/10/05 05:09:10;;;;;;;12.32;10.85;;;13.00;99.90;;;;;;4919602;29;20039;-94
2021/10/05 05:11:36;;;;;;;9.88;8.38;;;13.10;99.90;;;;;;4919616;29;20058;-93
2021/10/05 05:14:07;;;;;;;9.50;8.48;;;13.20;99.90;;;;;;4920085;29;20035;-91
2021/10/05 05:16:34;;;;;;;10.85;8.15;;;13.40;99.90;;;;;;4920658;29;20055;-91
2021/10/05 05:19:00;;;;;;;13.98;11.18;;;13.50;99.90;;;;;;4904411;29;20036;-92
2021/10/05 05:21:27;;;;;;;11.13;9.88;;;13.60;99.90;;;;;;4919772;29;20024;-92
2021/10/05 05:23:53;;;;;;;8.55;7.50;;;13.60;99.90;;;;;;4920069;29;20064;-93
2021/10/05 05:26:18;;;;;;;11.55;10.25;;;13.60;99.90;;;;;;4923430;29;20076;-92
2021/10/05 05:28:44;;;;;;;17.02;11.40;;;13.60;99.90;;;;;;4923381;29;20115;-93
2021/10/05 05:31:10;;;;;;;13.88;11.82;;;13.40;99.90;;;;;;4924009;29;20027;-92
2021/10/05 05:33:36;;;;;;;13.23;10.43;;;13.10;99.90;;;;;;4923453;29;20494;-94
2021/10/05 05:36:01;;;;;;;12.02;9.63;;;13.10;99.90;;;;;;4923068;29;20047;-92
2021/10/05 05:38:27;;;;;;;13.77;11.63;;;13.10;99.90;;;;;;4923766;29;20082;-91
2021/10/05 05:40:53;;;;;;;12.30;10.40;;;13.00;99.90;;;;;;4922805;29;20495;-92
2021/10/05 05:43:20;;;;;;;10.40;8.75;;;13.00;99.90;;;;;;4923125;29;20028;-93
2021/10/05 05:45:46;;;;;;;12.65;11.10;;;12.90;99.90;;;;;;4922981;29;20059;-92
2021/10/05 05:48:12;;;;;;;13.02;10.38;;;13.00;99.90;;;;;;4923235;29;20051;-91
2021/10/05 05:50:38;;;;;;;15.00;12.02;;;12.90;99.90;;;;;;4922798;29;20031;-93
2021/10/05 05:53:04;;;;;;;18.13;11.52;;;12.80;99.90;;;;;;4923391;29;20356;-92
2021/10/05 05:55:29;;;;;;;11.77;10.27;;;12.80;99.90;;;;;;4922565;29;20038;-93
2021/10/05 05:57:55;;;;;;;11.30;8.85;;;12.80;99.90;;;;;;4922800;29;20524;-93
2021/10/05 06:00:22;;;;;;;10.77;9.63;;;12.80;99.90;;;;;;4923365;29;20383;-92
2021/10/05 06:02:48;;;;;;;11.95;9.38;;;12.80;99.90;;;;;;4922574;29;20031;-92
2021/10/05 06:05:15;;;;;;;13.32;9.73;;;12.70;99.90;;;;;;4922825;29;20024;-93
2021/10/05 06:07:40;;;;;;;9.93;8.93;;;12.70;99.90;;;;;;4922566;29;20046;-92
2021/10/05 06:10:08;;;;;;;8.35;6.15;;;12.80;99.90;;;;;;4922397;29;20020;-92
2021/10/05 06:12:41;;;;;;;7.35;6.13;;;13.00;99.90;;;;;;4922470;29;20079;-93
2021/10/05 06:15:12;;;;;;;10.93;7.78;;;12.90;99.90;;;;;;4922361;29;20024;-92
2021/10/05 06:17:39;;;;;;;7.65;6.85;;;12.90;99.90;;;;;;4922091;29;20031;-92
2021/10/05 06:20:17;;;;;;;8.70;7.03;;;12.80;99.90;;;;;;4923319;29;20066;-94
2021/10/05 06:22:43;;;;;;;7.82;6.13;;;13.10;99.90;;;;;;4922696;29;20047;-92
2021/10/05 06:25:15;;;;;;;9.88;7.72;;;13.30;99.90;;;;;;4922345;29;20024;-93
2021/10/05 06:27:41;;;;;;;15.25;8.15;;;13.20;99.90;;;;;;4922006;29;20083;-92
2021/10/05 06:30:09;;;;;;;9.93;7.78;;;13.10;99.90;;;;;;4923066;29;20492;-93
2021/10/05 06:32:35;;;;;;;5.50;4.90;;;13.10;99.90;;;;;;4922875;29;20020;-92
2021/10/05 06:35:01;;;;;;;7.25;6.38;;;13.20;99.90;;;;;;4921974;29;20038;-93
2021/10/05 06:37:27;;;;;;;13.93;7.18;;;13.20;99.90;;;;;;4922042;29;20028;-93
2021/10/05 06:39:52;;;;;;;11.57;7.00;;;13.10;99.90;;;;;;4922970;29;20139;-94
2021/10/05 06:42:18;;;;;;;7.55;6.35;;;13.20;99.90;;;;;;4924677;29;20024;-93
2021/10/05 06:44:44;;;;;;;11.93;7.15;;;13.30;99.90;;;;;;4929019;29;20024;-92
2021/10/05 06:47:10;;;;;;;7.68;5.00;;;13.40;99.90;;;;;;4941827;29;20368;-93
2021/10/05 06:49:36;;;;;;;10.45;7.15;;;13.40;99.90;;;;;;4938710;29;20427;-93
2021/10/05 06:52:03;;;;;;;8.55;6.78;;;13.40;99.90;;;;;;4923737;29;20083;-93
2021/10/05 06:54:29;;;;;;;8.68;5.72;;;13.30;99.90;;;;;;4923684;29;20032;-93
2021/10/05 06:56:56;;;;;;;5.32;4.72;;;13.40;99.90;;;;;;4923773;29;20507;-92
2021/10/05 06:59:22;;;;;;;6.63;5.85;;;13.50;99.90;;;;;;4922211;29;20032;-92
2021/10/05 07:01:48;;;;;;;10.82;6.82;;;13.40;99.90;;;;;;4906626;29;20032;-92
2021/10/05 07:04:14;;;;;;;8.70;7.80;;;13.40;99.90;;;;;;4921900;29;20028;-92
2021/10/05 07:06:41;;;;;;;8.65;7.10;;;13.40;99.90;;;;;;4922160;29;20032;-93
2021/10/05 07:09:07;;;;;;;6.18;5.57;;;13.40;99.90;;;;;;4921833;29;20032;-94
2021/10/05 07:11:34;;;;;;;6.80;5.88;;;13.50;99.90;;;;;;4921824;29;20038;-94
2021/10/05 07:14:00;;;;;;;8.02;6.90;;;13.60;99.90;;;;;;4921644;29;20028;-94
2021/10/05 07:16:26;;;;;;;12.02;8.00;;;13.70;99.90;;;;;;4922265;29;20024;-95
2021/10/05 07:18:52;;;;;;;8.02;7.03;;;13.60;99.90;;;;;;4921393;29;20059;-94
2021/10/05 07:21:18;;;;;;;8.15;6.50;;;13.80;99.90;;;;;;4922472;29;20114;-95
2021/10/05 07:23:44;;;;;;;12.02;8.48;;;13.60;99.90;;;;;;4923304;29;20026;-94
2021/10/05 07:26:10;;;;;;;8.13;3.55;;;13.30;99.90;;;;;;4922611;29;20058;-95
2021/10/05 07:28:36;;;;;;;8.85;6.68;;;13.40;99.90;;;;;;4922692;29;20032;-95
2021/10/05 07:31:01;;;;;;;8.70;6.57;;;13.50;99.90;;;;;;4923114;29;20028;-92
2021/10/05 07:33:28;;;;;;;11.20;7.30;;;13.50;99.90;;;;;;4921926;29;20119;-93
2021/10/05 07:35:54;;;;;;;8.48;7.00;;;13.50;99.90;;;;;;4921242;29;20387;-94
2021/10/05 07:38:20;;;;;;;11.50;8.27;;;13.50;99.90;;;;;;4920963;29;20499;-92
2021/10/05 07:40:46;;;;;;;9.07;7.05;;;13.50;99.90;;;;;;4920728;29;20052;-92
2021/10/05 07:43:11;;;;;;;9.55;8.05;;;13.30;99.90;;;;;;4921394;29;20032;-91
2021/10/05 07:45:38;;;;;;;8.27;6.60;;;13.40;99.90;;;;;;4920843;29;20027;-92
2021/10/05 07:48:04;;;;;;;5.68;5.07;;;13.60;99.90;;;;;;4920460;29;20031;-94
2021/10/05 07:50:32;;;;;;;6.35;5.43;;;13.80;99.90;;;;;;4921648;29;20042;-94
2021/10/05 07:52:59;;;;;;;6.10;4.95;;;13.90;99.90;;;;;;4921693;29;20098;-93
2021/10/05 07:55:26;;;;;;;6.40;5.55;;;14.00;99.90;;;;;;4921997;29;20043;-94
2021/10/05 07:57:52;;;;;;;7.68;6.75;;;14.10;99.90;;;;;;4921112;29;20436;-94
2021/10/05 08:00:17;;;;;;;8.85;7.43;;;14.10;99.90;;;;;;4921271;29;20054;-92
2021/10/05 08:02:45;;;;;;;8.45;6.05;;;14.10;99.90;;;;;;4921084;29;20042;-91
2021/10/05 08:05:12;;;;;;;5.93;4.93;;;14.10;99.90;;;;;;4921089;29;20052;-94
2021/10/05 08:07:39;;;;;;;9.63;6.65;;;13.90;99.90;;;;;;4921291;29;20032;-93
2021/10/05 08:10:05;;;;;;;8.40;6.00;;;14.10;99.90;;;;;;4920840;29;20122;-93
2021/10/05 08:12:31;;;;;;;7.22;4.43;;;14.10;99.90;;;;;;4921077;29;20031;-95
2021/10/05 08:14:57;;;;;;;7.32;4.95;;;14.10;99.90;;;;;;4920584;29;20099;-95
2021/10/05 08:17:24;;;;;;;8.45;6.78;;;14.10;99.90;;;;;;4921283;29;20023;-94
2021/10/05 08:19:50;;;;;;;10.20;7.50;;;14.00;99.90;;;;;;4890202;29;20032;-93
2021/10/05 08:22:16;;;;;;;7.47;6.30;;;13.90;99.90;;;;;;4920762;29;20030;-94
2021/10/05 08:24:42;;;;;;;7.00;5.57;;;13.80;99.90;;;;;;4921066;29;20027;-94
2021/10/05 08:27:09;;;;;;;8.95;6.30;;;13.90;99.90;;;;;;4922591;29;20028;-93
2021/10/05 08:29:37;;;;;;;9.50;6.63;;;13.60;99.90;;;;;;4920679;29;20479;-94
2021/10/05 08:32:04;;;;;;;8.88;6.20;;;13.80;99.90;;;;;;4921108;29;20106;-95
2021/10/05 08:34:30;;;;;;;8.40;6.18;;;13.90;99.90;;;;;;4920211;29;20032;-92
2021/10/05 08:36:56;;;;;;;7.25;6.20;;;13.90;99.90;;;;;;4921590;29;20117;-94
2021/10/05 08:42:45;;;;;;;6.70;4.88;;;14.00;99.90;;;;;;4949763;29;20027;-96
2021/10/05 08:45:16;;;;;;;6.93;5.53;;;13.80;99.90;;;;;;4931936;29;20492;-94
2021/10/05 10:17:45;;;;;;;2.40;2.20;;;14.40;99.90;;;;;;1284714;23;20318;-90
2021/10/05 10:20:23;;;;;;;3.35;2.20;;;14.40;99.90;;;;;;4959381;28;20427;-93
2021/10/05 10:22:50;;;;;;;2.92;2.20;;;14.40;99.90;;;;;;4960848;28;20027;-90
2021/10/05 10:25:25;;;;;;;2.30;1.52;;;14.60;99.90;;;;;;4960654;28;20136;-90
2021/10/05 10:27:57;;;;;;;2.28;2.08;;;14.80;99.90;;;;;;4961354;28;20027;-90
2021/10/05 10:30:28;;;;;;;2.22;1.50;;;15.10;99.90;;;;;;4960802;28;20495;-91
2021/10/05 10:33:00;;;;;;;14.13;1.98;;;15.50;99.90;;;;;;4960205;28;20117;-86
2021/10/05 10:35:26;;;;;;;2.40;1.95;;;15.70;99.90;;;;;;4976989;28;20023;-89
2021/10/05 10:37:53;;;;;;;1.40;1.20;;;15.80;99.90;;;;;;4960725;28;20023;-92
2021/10/05 10:40:35;;;;;;;1.67;1.30;;;15.80;99.90;;;;;;4960037;28;20030;-90
2021/10/05 10:43:17;;;;;;;1.77;1.02;;;15.70;99.90;;;;;;4960706;28;20027;-91
2021/10/05 10:46:03;;;;;;;1.45;1.20;;;15.40;99.90;;;;;;4960084;28;20391;-91
2021/10/05 10:48:35;;;;;;;1.20;1.00;;;15.40;99.90;;;;;;4960065;28;20031;-91
2021/10/05 10:51:13;;;;;;;1.15;0.90;;;15.40;99.90;;;;;;4960044;28;20034;-93
2021/10/05 10:53:40;;;;;;;1.52;0.90;;;15.50;99.90;;;;;;4960212;28;20043;-92
2021/10/05 10:56:07;;;;;;;2.25;1.20;;;15.60;99.90;;;;;;4960491;28;20033;-90
2021/10/05 10:58:47;;;;;;;1.60;1.23;;;15.30;99.90;;;;;;4959427;28;20122;-90
2021/10/05 11:01:14;;;;;;;1.33;1.00;;;15.30;99.90;;;;;;4960037;28;20019;-88
2021/10/05 11:03:41;;;;;;;2.63;1.65;;;15.30;99.90;;;;;;4959742;28;20050;-90
2021/10/05 11:06:14;;;;;;;3.03;1.45;;;15.30;99.90;;;;;;4959747;28;20101;-92
2021/10/05 11:08:52;;;;;;;1.25;0.88;;;15.30;99.90;;;;;;4961077;28;20027;-90
2021/10/05 11:11:34;;;;;;;3.03;1.70;;;15.40;99.90;;;;;;4962815;28;20053;-88
2021/10/05 11:14:01;;;;;;;1.35;1.10;;;15.10;99.90;;;;;;4968569;28;20034;-88
2021/10/05 11:16:29;;;;;;;1.90;1.35;;;15.10;99.90;;;;;;4980543;28;20025;-88
2021/10/05 11:19:11;;;;;;;12.65;2.25;;;15.00;99.90;;;;;;4974140;28;20137;-91
2021/10/05 11:21:41;;;;;;;1.50;1.10;;;15.00;99.90;;;;;;4960453;28;20106;-91
2021/10/05 11:24:08;;;;;;;4.07;2.40;;;15.00;99.90;;;;;;4959814;28;20027;-90
2021/10/05 11:26:40;;;;;;;3.15;2.00;;;14.90;99.90;;;;;;4959250;28;20023;-89
2021/10/05 11:29:07;;;;;;;2.20;1.33;;;14.90;99.90;;;;;;4959570;28;20034;-88
2021/10/05 11:31:46;;;;;;;1.35;0.80;;;14.90;99.90;;;;;;4958518;28;20061;-89
2021/10/05 11:34:11;;;;;;;2.42;0.75;;;14.80;99.90;;;;;;4975866;28;20061;-89
2021/10/05 11:36:37;;;;;;;2.00;1.13;;;14.80;99.90;;;;;;4958518;28;20026;-90
2021/10/05 11:39:06;;;;;;;0.93;0.60;;;15.00;99.90;;;;;;4958474;28;20067;-89
2021/10/05 11:41:36;;;;;;;3.28;1.80;;;15.00;99.90;;;;;;4958682;28;20019;-88
2021/10/05 11:44:17;;;;;;;0.60;0.55;;;15.10;99.90;;;;;;4958627;28;20027;-89
2021/10/05 11:47:04;;;;;;;4.80;0.60;;;15.20;99.90;;;;;;4959452;28;20462;-89
2021/10/05 11:49:35;;;;;;;0.95;0.30;;;15.30;99.90;;;;;;4958394;28;20022;-89
2021/10/05 11:52:02;;;;;;;3.42;0.40;;;15.40;99.90;;;;;;4958864;28;20390;-90
2021/10/05 11:54:33;;;;;;;2.20;0.30;;;15.50;99.90;;;;;;4958097;28;20062;-88
2021/10/05 11:57:07;;;;;;;1.27;0.40;;;15.60;99.90;;;;;;4958170;28;20167;-90
2021/10/05 11:59:35;;;;;;;2.05;0.40;;;15.80;99.90;;;;;;4958506;28;20030;-88
2021/10/05 12:02:15;;;;;;;1.17;0.43;;;16.30;99.90;;;;;;4958282;28;20038;-88
2021/10/05 12:04:43;;;;;;;2.67;1.67;;;17.00;99.90;;;;;;4942406;28;20128;-90
2021/10/05 12:07:20;;;;;;;1.27;0.30;;;17.20;99.90;;;;;;4958781;28;20030;-89
2021/10/05 12:09:49;;;;;;;1.45;0.30;;;17.00;99.90;;;;;;4973926;28;20077;-89
2021/10/05 12:12:17;;;;;;;2.67;0.40;;;16.70;99.90;;;;;;4958000;28;20135;-88
2021/10/05 12:15:16;;;;;;;1.27;0.70;;;16.30;99.90;;;;;;4957789;28;20027;-88
2021/10/05 12:17:43;;;;;;;0.80;0.40;;;16.20;99.90;;;;;;4944001;28;20042;-86
2021/10/05 12:20:12;;;;;;;0.75;0.38;;;16.00;99.90;;;;;;4957282;28;20073;-88
2021/10/05 12:22:42;;;;;;;0.75;0.40;;;15.90;99.90;;;;;;4958661;28;20419;-88
2021/10/05 12:25:23;;;;;;;1.90;0.50;;;15.60;99.90;;;;;;4973898;28;20391;-90
2021/10/05 12:27:52;;;;;;;3.40;0.65;;;15.70;99.90;;;;;;4957687;28;20533;-88
2021/10/05 12:30:23;;;;;;;1.27;0.50;;;16.00;99.90;;;;;;4957590;28;20553;-87
2021/10/05 12:32:58;;;;;;;0.55;0.30;;;16.20;99.90;;;;;;4957383;28;20054;-90
2021/10/05 12:35:23;;;;;;;;;;;16.20;99.90;;;;;;4958033;28;20026;-91
2021/10/05 12:38:02;;;;;;;1.85;0.30;;;16.00;99.90;;;;;;4958662;28;19906;-89
2021/10/05 12:40:55;;;;;;;0.45;0.40;;;16.10;99.90;;;;;;4957953;28;20550;-91
2021/10/05 12:43:36;;;;;;;0.22;0.20;;;16.10;99.90;;;;;;4958172;28;20018;-91
2021/10/05 12:46:10;;;;;;;0.88;0.30;;;16.60;99.90;;;;;;4958294;28;20106;-88
2021/10/05 12:48:39;;;;;;;0.30;0.30;;;16.60;99.90;;;;;;4973617;28;20031;-88
2021/10/05 12:51:11;;;;;;;0.35;0.25;;;16.60;99.90;;;;;;4957331;28;20081;-89
2021/10/05 12:53:37;;;;;;;0.28;0.20;;;16.90;99.90;;;;;;4957683;28;20126;-89
2021/10/05 12:56:04;;;;;;;1.10;0.60;;;17.30;99.90;;;;;;4958197;28;20030;-91
2021/10/05 12:58:30;;;;;;;0.82;0.52;;;17.90;99.90;;;;;;4957781;28;20027;-90
2021/10/05 13:00:56;;;;;;;0.75;0.30;;;18.00;99.90;;;;;;4958271;28;20371;-89
2021/10/05 13:03:23;;;;;;;0.82;0.17;;;17.80;99.90;;;;;;4957893;28;20031;-91
2021/10/05 13:05:50;;;;;;;0.43;0.20;;;18.50;99.90;;;;;;4957203;28;20031;-88
2021/10/05 13:08:16;;;;;;;0.70;0.32;;;21.30;99.90;;;;;;4957164;28;20031;-91
2021/10/05 13:10:42;;;;;;;1.55;0.30;;;22.70;99.90;;;;;;4957939;28;20023;-90
2021/10/05 13:13:09;;;;;;;0.50;0.30;;;23.40;99.90;;;;;;4974058;28;20027;-89
2021/10/05 13:15:34;;;;;;;1.02;0.30;;;22.80;99.90;;;;;;4958029;28;20130;-92
2021/10/05 13:18:00;;;;;;;1.15;0.30;;;22.60;99.90;;;;;;4957621;28;20031;-90
2021/10/05 13:20:29;;;;;;;0.40;0.20;;;21.40;99.90;;;;;;4957614;28;20367;-90
2021/10/05 13:22:54;;;;;;;0.50;0.35;;;21.00;99.90;;;;;;4958755;28;20054;-90
2021/10/05 13:25:20;;;;;;;0.68;0.35;;;20.30;99.90;;;;;;4959521;28;20069;-89
2021/10/05 13:27:46;;;;;;;0.68;0.30;;;19.70;99.90;;;;;;4959804;28;20027;-89
2021/10/05 13:30:12;;;;;;;0.70;0.40;;;19.50;99.90;;;;;;4976092;28;20018;-87
2021/10/05 13:32:39;;;;;;;1.02;0.50;;;18.90;99.90;;;;;;4996609;28;20027;-90
2021/10/05 13:35:07;;;;;;;0.50;0.30;;;18.40;99.90;;;;;;4963958;28;20026;-90
2021/10/05 13:37:34;;;;;;;0.80;0.30;;;18.10;99.90;;;;;;4958618;28;20030;-88
2021/10/05 13:40:01;;;;;;;2.88;0.60;;;18.00;99.90;;;;;;4957926;28;20027;-90
2021/10/05 13:42:30;;;;;;;2.17;0.47;;;18.20;99.90;;;;;;4958700;28;20058;-90
2021/10/05 13:44:55;;;;;;;1.42;0.40;;;20.00;99.90;;;;;;4958722;28;20027;-94
2021/10/05 13:47:21;;;;;;;1.25;0.60;;;19.20;99.90;;;;;;4961805;28;20422;-92
2021/10/05 13:49:47;;;;;;;0.77;0.60;;;20.40;99.90;;;;;;4961690;28;20031;-90
2021/10/05 13:52:14;;;;;;;2.88;0.40;;;21.20;99.90;;;;;;4961344;28;20113;-93
2021/10/05 13:54:40;;;;;;;1.02;0.32;;;20.60;99.90;;;;;;4961173;28;20037;-90
2021/10/05 13:57:06;;;;;;;4.75;0.50;;;19.70;99.90;;;;;;4967635;28;20094;-87
2021/10/05 13:59:31;;;;;;;5.95;0.60;;;18.30;99.90;;;;;;4960964;28;20027;-88
2021/10/05 14:01:58;;;;;;;3.97;0.60;;;19.60;99.90;;;;;;4960351;28;20055;-90
2021/10/05 14:04:24;;;;;;;7.88;1.00;;;20.00;99.90;;;;;;4960217;28;20087;-90
2021/10/05 14:06:50;;;;;;;8.93;0.60;;;20.40;99.90;;;;;;4960008;28;20034;-89
2021/10/05 14:09:16;;;;;;;0.82;0.50;;;21.60;99.90;;;;;;4960018;28;20038;-90
2021/10/05 14:11:43;;;;;;;1.23;0.30;;;20.60;99.90;;;;;;4960623;28;20122;-87
2021/10/05 14:14:09;;;;;;;0.93;0.40;;;20.30;99.90;;;;;;4960056;28;20054;-90